sensor_id;sensor_type;location;lat;lon;timestamp;P1;durP1;ratioP1;P2;durP2;ratioP2
74421;SDS011;62856;51.446;8.360;2022-11-15T00:00:27;7.18;;;2.80;;
74421;SDS011;62856;51.446;8.360;2022-11-15T00:02:53;7.75;;;2.42;;
74421;SDS011;62856;51.446;8.360;2022-11-15T00:05:18;6.97;;;2.33;;
74421;SDS011;62856;51.446;8.360;2022-11-15T00:07:43;9.85;;;2.72;;
74421;SDS011;62856;51.446;8.360;2022-11-15T00:10:09;7.00;;;2.10;;
74421;SDS011;62856;51.446;8.360;2022-11-15T00:12:34;9.32;;;2.60;;
74421;SDS011;62856;51.446;8.360;2022-11-15T00:14:59;7.45;;;2.60;;
74421;SDS011;62856;51.446;8.360;2022-11-15T00:17:25;8.00;;;2.67;;
74421;SDS011;62856;51.446;8.360;2022-11-15T00:19:50;9.48;;;3.42;;
74421;SDS011;62856;51.446;8.360;2022-11-15T00:22:15;8.60;;;2.57;;
74421;SDS011;62856;51.446;8.360;2022-11-15T00:24:40;8.43;;;2.28;;
74421;SDS011;62856;51.446;8.360;2022-11-15T00:27:06;7.60;;;2.63;;
74421;SDS011;62856;51.446;8.360;2022-11-15T00:29:31;9.93;;;2.70;;
74421;SDS011;62856;51.446;8.360;2022-11-15T00:31:56;9.27;;;3.00;;
74421;SDS011;62856;51.446;8.360;2022-11-15T00:34:21;8.07;;;2.60;;
74421;SDS011;62856;51.446;8.360;2022-11-15T00:36:47;8.70;;;2.60;;
74421;SDS011;62856;51.446;8.360;2022-11-15T00:39:12;7.93;;;2.53;;
74421;SDS011;62856;51.446;8.360;2022-11-15T00:41:37;8.25;;;2.80;;
74421;SDS011;62856;51.446;8.360;2022-11-15T00:44:02;7.37;;;2.90;;
74421;SDS011;62856;51.446;8.360;2022-11-15T00:46:28;7.38;;;2.33;;
74421;SDS011;62856;51.446;8.360;2022-11-15T00:48:53;8.75;;;2.83;;
74421;SDS011;62856;51.446;8.360;2022-11-15T00:51:19;7.20;;;2.63;;
74421;SDS011;62856;51.446;8.360;2022-11-15T00:53:44;8.70;;;3.35;;
74421;SDS011;62856;51.446;8.360;2022-11-15T00:56:09;8.73;;;3.10;;
74421;SDS011;62856;51.446;8.360;2022-11-15T00:58:34;9.77;;;3.07;;
74421;SDS011;62856;51.446;8.360;2022-11-15T01:01:10;9.73;;;2.53;;
74421;SDS011;62856;51.446;8.360;2022-11-15T01:03:38;8.15;;;2.75;;
74421;SDS011;62856;51.446;8.360;2022-11-15T01:06:04;8.02;;;2.90;;
74421;SDS011;62856;51.446;8.360;2022-11-15T01:08:30;9.38;;;2.92;;
74421;SDS011;62856;51.446;8.360;2022-11-15T01:10:59;9.23;;;2.90;;
74421;SDS011;62856;51.446;8.360;2022-11-15T01:13:26;9.13;;;2.75;;
74421;SDS011;62856;51.446;8.360;2022-11-15T01:15:51;11.23;;;2.73;;
74421;SDS011;62856;51.446;8.360;2022-11-15T01:18:16;10.03;;;3.13;;
74421;SDS011;62856;51.446;8.360;2022-11-15T01:20:42;9.02;;;2.83;;
74421;SDS011;62856;51.446;8.360;2022-11-15T01:23:07;8.25;;;2.67;;
74421;SDS011;62856;51.446;8.360;2022-11-15T01:25:33;8.40;;;2.83;;
74421;SDS011;62856;51.446;8.360;2022-11-15T01:27:58;7.38;;;2.63;;
74421;SDS011;62856;51.446;8.360;2022-11-15T01:30:24;7.17;;;2.73;;
74421;SDS011;62856;51.446;8.360;2022-11-15T01:32:49;9.07;;;3.10;;
74421;SDS011;62856;51.446;8.360;2022-11-15T01:35:14;8.83;;;3.13;;
74421;SDS011;62856;51.446;8.360;2022-11-15T01:37:40;8.73;;;2.83;;
74421;SDS011;62856;51.446;8.360;2022-11-15T01:40:05;8.33;;;3.10;;
74421;SDS011;62856;51.446;8.360;2022-11-15T01:42:30;7.93;;;2.63;;
74421;SDS011;62856;51.446;8.360;2022-11-15T01:44:56;7.78;;;2.78;;
74421;SDS011;62856;51.446;8.360;2022-11-15T01:47:23;9.03;;;2.87;;
74421;SDS011;62856;51.446;8.360;2022-11-15T01:50:12;8.18;;;2.78;;
74421;SDS011;62856;51.446;8.360;2022-11-15T01:52:40;8.68;;;2.92;;
74421;SDS011;62856;51.446;8.360;2022-11-15T01:55:11;9.35;;;2.80;;
74421;SDS011;62856;51.446;8.360;2022-11-15T01:57:41;9.85;;;3.15;;
74421;SDS011;62856;51.446;8.360;2022-11-15T02:00:07;9.60;;;2.65;;
74421;SDS011;62856;51.446;8.360;2022-11-15T02:02:33;9.50;;;2.85;;
74421;SDS011;62856;51.446;8.360;2022-11-15T02:07:26;8.10;;;2.40;;
74421;SDS011;62856;51.446;8.360;2022-11-15T02:09:53;7.20;;;2.70;;
74421;SDS011;62856;51.446;8.360;2022-11-15T02:12:20;7.53;;;2.67;;
74421;SDS011;62856;51.446;8.360;2022-11-15T02:14:48;7.18;;;2.60;;
74421;SDS011;62856;51.446;8.360;2022-11-15T02:31:07;8.25;;;2.42;;
74421;SDS011;62856;51.446;8.360;2022-11-15T02:41:57;8.05;;;2.33;;
74421;SDS011;62856;51.446;8.360;2022-11-15T02:44:53;6.82;;;2.08;;
74421;SDS011;62856;51.446;8.360;2022-11-15T02:47:22;7.47;;;2.50;;
74421;SDS011;62856;51.446;8.360;2022-11-15T02:49:52;7.20;;;2.30;;
74421;SDS011;62856;51.446;8.360;2022-11-15T02:52:20;7.32;;;2.20;;
74421;SDS011;62856;51.446;8.360;2022-11-15T02:54:57;6.97;;;2.35;;
74421;SDS011;62856;51.446;8.360;2022-11-15T02:57:41;6.82;;;2.40;;
74421;SDS011;62856;51.446;8.360;2022-11-15T03:00:17;7.05;;;2.10;;
74421;SDS011;62856;51.446;8.360;2022-11-15T03:10:09;6.18;;;1.95;;
74421;SDS011;62856;51.446;8.360;2022-11-15T03:12:44;6.13;;;2.00;;
74421;SDS011;62856;51.446;8.360;2022-11-15T03:15:21;6.88;;;1.98;;
74421;SDS011;62856;51.446;8.360;2022-11-15T03:17:55;6.32;;;1.98;;
74421;SDS011;62856;51.446;8.360;2022-11-15T03:20:25;7.38;;;2.20;;
74421;SDS011;62856;51.446;8.360;2022-11-15T03:22:52;4.97;;;1.88;;
74421;SDS011;62856;51.446;8.360;2022-11-15T03:25:21;7.97;;;2.03;;
74421;SDS011;62856;51.446;8.360;2022-11-15T03:27:51;6.57;;;1.95;;
74421;SDS011;62856;51.446;8.360;2022-11-15T03:30:20;5.90;;;1.90;;
74421;SDS011;62856;51.446;8.360;2022-11-15T03:32:51;5.85;;;1.90;;
74421;SDS011;62856;51.446;8.360;2022-11-15T03:35:21;6.30;;;1.75;;
74421;SDS011;62856;51.446;8.360;2022-11-15T03:40:40;5.95;;;1.88;;
74421;SDS011;62856;51.446;8.360;2022-11-15T03:43:22;7.35;;;1.90;;
74421;SDS011;62856;51.446;8.360;2022-11-15T03:46:02;5.47;;;1.55;;
74421;SDS011;62856;51.446;8.360;2022-11-15T03:48:33;6.85;;;2.10;;
74421;SDS011;62856;51.446;8.360;2022-11-15T03:51:04;6.70;;;1.85;;
74421;SDS011;62856;51.446;8.360;2022-11-15T03:53:30;5.03;;;1.63;;
74421;SDS011;62856;51.446;8.360;2022-11-15T03:55:56;5.93;;;1.52;;
74421;SDS011;62856;51.446;8.360;2022-11-15T03:58:22;5.45;;;1.90;;
74421;SDS011;62856;51.446;8.360;2022-11-15T04:00:47;5.07;;;1.67;;
74421;SDS011;62856;51.446;8.360;2022-11-15T04:03:12;5.90;;;1.90;;
74421;SDS011;62856;51.446;8.360;2022-11-15T04:05:38;5.17;;;1.50;;
74421;SDS011;62856;51.446;8.360;2022-11-15T04:08:03;6.73;;;2.10;;
74421;SDS011;62856;51.446;8.360;2022-11-15T04:10:28;5.65;;;1.83;;
74421;SDS011;62856;51.446;8.360;2022-11-15T04:12:53;4.87;;;1.63;;
74421;SDS011;62856;51.446;8.360;2022-11-15T04:15:20;5.97;;;1.87;;
74421;SDS011;62856;51.446;8.360;2022-11-15T04:17:47;6.85;;;1.98;;
74421;SDS011;62856;51.446;8.360;2022-11-15T04:23:24;6.18;;;2.00;;
74421;SDS011;62856;51.446;8.360;2022-11-15T04:26:17;5.38;;;1.65;;
74421;SDS011;62856;51.446;8.360;2022-11-15T04:28:45;6.13;;;2.08;;
74421;SDS011;62856;51.446;8.360;2022-11-15T04:31:29;5.97;;;2.05;;
74421;SDS011;62856;51.446;8.360;2022-11-15T04:33:54;8.37;;;2.07;;
74421;SDS011;62856;51.446;8.360;2022-11-15T04:36:20;5.43;;;1.85;;
74421;SDS011;62856;51.446;8.360;2022-11-15T04:39:04;6.53;;;1.77;;
74421;SDS011;62856;51.446;8.360;2022-11-15T04:41:30;6.60;;;2.07;;
74421;SDS011;62856;51.446;8.360;2022-11-15T04:43:55;5.97;;;1.83;;
74421;SDS011;62856;51.446;8.360;2022-11-15T04:46:21;5.72;;;1.88;;
74421;SDS011;62856;51.446;8.360;2022-11-15T04:48:48;7.15;;;2.20;;
74421;SDS011;62856;51.446;8.360;2022-11-15T04:51:13;6.50;;;2.00;;
74421;SDS011;62856;51.446;8.360;2022-11-15T04:53:39;5.33;;;1.77;;
74421;SDS011;62856;51.446;8.360;2022-11-15T04:56:04;6.10;;;2.00;;
74421;SDS011;62856;51.446;8.360;2022-11-15T04:58:29;7.40;;;2.17;;
74421;SDS011;62856;51.446;8.360;2022-11-15T05:00:55;6.18;;;1.70;;
74421;SDS011;62856;51.446;8.360;2022-11-15T05:03:20;6.00;;;1.80;;
74421;SDS011;62856;51.446;8.360;2022-11-15T05:06:04;6.13;;;1.77;;
74421;SDS011;62856;51.446;8.360;2022-11-15T05:08:30;6.55;;;1.90;;
74421;SDS011;62856;51.446;8.360;2022-11-15T05:10:55;6.30;;;2.00;;
74421;SDS011;62856;51.446;8.360;2022-11-15T05:13:20;6.33;;;2.17;;
74421;SDS011;62856;51.446;8.360;2022-11-15T05:15:46;6.07;;;1.90;;
74421;SDS011;62856;51.446;8.360;2022-11-15T05:18:12;6.28;;;2.00;;
74421;SDS011;62856;51.446;8.360;2022-11-15T05:20:37;5.85;;;1.77;;
74421;SDS011;62856;51.446;8.360;2022-11-15T05:23:02;5.63;;;1.75;;
74421;SDS011;62856;51.446;8.360;2022-11-15T05:25:27;5.28;;;1.70;;
74421;SDS011;62856;51.446;8.360;2022-11-15T05:27:53;4.87;;;1.37;;
74421;SDS011;62856;51.446;8.360;2022-11-15T05:30:19;5.90;;;1.83;;
74421;SDS011;62856;51.446;8.360;2022-11-15T05:32:44;6.13;;;1.88;;
74421;SDS011;62856;51.446;8.360;2022-11-15T05:35:12;6.10;;;1.75;;
74421;SDS011;62856;51.446;8.360;2022-11-15T05:37:43;4.93;;;1.58;;
74421;SDS011;62856;51.446;8.360;2022-11-15T05:40:09;5.63;;;1.55;;
74421;SDS011;62856;51.446;8.360;2022-11-15T05:42:34;7.93;;;1.80;;
74421;SDS011;62856;51.446;8.360;2022-11-15T05:45:00;5.03;;;1.52;;
74421;SDS011;62856;51.446;8.360;2022-11-15T05:47:30;5.85;;;2.05;;
74421;SDS011;62856;51.446;8.360;2022-11-15T05:49:55;5.43;;;1.90;;
74421;SDS011;62856;51.446;8.360;2022-11-15T05:52:23;5.07;;;1.63;;
74421;SDS011;62856;51.446;8.360;2022-11-15T05:54:52;5.15;;;1.70;;
74421;SDS011;62856;51.446;8.360;2022-11-15T05:57:18;6.03;;;1.98;;
74421;SDS011;62856;51.446;8.360;2022-11-15T05:59:43;5.80;;;1.60;;
74421;SDS011;62856;51.446;8.360;2022-11-15T06:02:09;6.35;;;1.85;;
74421;SDS011;62856;51.446;8.360;2022-11-15T06:04:35;4.60;;;1.60;;
74421;SDS011;62856;51.446;8.360;2022-11-15T06:07:01;5.60;;;1.73;;
74421;SDS011;62856;51.446;8.360;2022-11-15T06:09:26;6.47;;;1.80;;
74421;SDS011;62856;51.446;8.360;2022-11-15T06:11:51;4.72;;;1.35;;
74421;SDS011;62856;51.446;8.360;2022-11-15T06:14:17;4.93;;;1.40;;
74421;SDS011;62856;51.446;8.360;2022-11-15T06:16:43;5.93;;;1.70;;
74421;SDS011;62856;51.446;8.360;2022-11-15T06:19:08;5.20;;;1.45;;
74421;SDS011;62856;51.446;8.360;2022-11-15T06:21:34;4.60;;;1.50;;
74421;SDS011;62856;51.446;8.360;2022-11-15T06:23:59;5.40;;;1.47;;
74421;SDS011;62856;51.446;8.360;2022-11-15T06:26:24;4.20;;;1.57;;
74421;SDS011;62856;51.446;8.360;2022-11-15T06:28:49;5.57;;;1.80;;
74421;SDS011;62856;51.446;8.360;2022-11-15T06:31:15;4.27;;;1.23;;
74421;SDS011;62856;51.446;8.360;2022-11-15T06:33:40;4.47;;;1.27;;
74421;SDS011;62856;51.446;8.360;2022-11-15T06:36:07;4.78;;;1.25;;
74421;SDS011;62856;51.446;8.360;2022-11-15T06:38:34;3.67;;;1.23;;
74421;SDS011;62856;51.446;8.360;2022-11-15T06:41:04;5.32;;;1.67;;
74421;SDS011;62856;51.446;8.360;2022-11-15T06:43:34;4.80;;;1.35;;
74421;SDS011;62856;51.446;8.360;2022-11-15T06:46:00;5.15;;;1.60;;
74421;SDS011;62856;51.446;8.360;2022-11-15T06:48:26;3.95;;;1.30;;
74421;SDS011;62856;51.446;8.360;2022-11-15T06:50:55;5.65;;;1.63;;
74421;SDS011;62856;51.446;8.360;2022-11-15T06:53:22;6.10;;;1.70;;
74421;SDS011;62856;51.446;8.360;2022-11-15T06:55:47;5.07;;;1.42;;
74421;SDS011;62856;51.446;8.360;2022-11-15T06:58:13;4.43;;;1.33;;
74421;SDS011;62856;51.446;8.360;2022-11-15T07:00:38;6.05;;;1.58;;
74421;SDS011;62856;51.446;8.360;2022-11-15T07:03:04;4.93;;;1.55;;
74421;SDS011;62856;51.446;8.360;2022-11-15T07:05:29;5.53;;;1.50;;
74421;SDS011;62856;51.446;8.360;2022-11-15T07:07:55;4.82;;;1.58;;
74421;SDS011;62856;51.446;8.360;2022-11-15T07:10:22;6.38;;;1.60;;
74421;SDS011;62856;51.446;8.360;2022-11-15T07:12:49;4.63;;;1.45;;
74421;SDS011;62856;51.446;8.360;2022-11-15T07:15:15;4.10;;;1.35;;
74421;SDS011;62856;51.446;8.360;2022-11-15T07:17:41;4.18;;;1.33;;
74421;SDS011;62856;51.446;8.360;2022-11-15T07:20:07;5.07;;;1.20;;
74421;SDS011;62856;51.446;8.360;2022-11-15T07:22:33;4.85;;;1.48;;
74421;SDS011;62856;51.446;8.360;2022-11-15T07:24:58;4.88;;;1.33;;
74421;SDS011;62856;51.446;8.360;2022-11-15T07:27:23;4.60;;;1.30;;
74421;SDS011;62856;51.446;8.360;2022-11-15T07:29:49;3.83;;;1.20;;
74421;SDS011;62856;51.446;8.360;2022-11-15T07:32:14;3.38;;;1.10;;
74421;SDS011;62856;51.446;8.360;2022-11-15T07:34:39;4.40;;;1.40;;
74421;SDS011;62856;51.446;8.360;2022-11-15T07:37:04;3.38;;;1.10;;
74421;SDS011;62856;51.446;8.360;2022-11-15T07:39:30;4.53;;;1.10;;
74421;SDS011;62856;51.446;8.360;2022-11-15T07:41:55;3.40;;;1.10;;
74421;SDS011;62856;51.446;8.360;2022-11-15T07:44:40;4.20;;;1.33;;
74421;SDS011;62856;51.446;8.360;2022-11-15T07:47:05;5.05;;;1.17;;
74421;SDS011;62856;51.446;8.360;2022-11-15T07:49:31;3.40;;;0.98;;
74421;SDS011;62856;51.446;8.360;2022-11-15T07:51:56;3.67;;;1.10;;
74421;SDS011;62856;51.446;8.360;2022-11-15T07:54:21;3.27;;;1.07;;
74421;SDS011;62856;51.446;8.360;2022-11-15T07:56:46;4.27;;;1.17;;
74421;SDS011;62856;51.446;8.360;2022-11-15T07:59:12;3.13;;;1.27;;
74421;SDS011;62856;51.446;8.360;2022-11-15T08:01:37;2.33;;;0.93;;
74421;SDS011;62856;51.446;8.360;2022-11-15T08:04:03;4.55;;;1.20;;
74421;SDS011;62856;51.446;8.360;2022-11-15T08:06:28;4.60;;;0.93;;
74421;SDS011;62856;51.446;8.360;2022-11-15T08:08:53;3.13;;;1.00;;
74421;SDS011;62856;51.446;8.360;2022-11-15T08:11:19;3.77;;;1.10;;
74421;SDS011;62856;51.446;8.360;2022-11-15T08:13:44;4.37;;;1.10;;
74421;SDS011;62856;51.446;8.360;2022-11-15T08:16:09;3.53;;;1.00;;
74421;SDS011;62856;51.446;8.360;2022-11-15T08:18:36;3.63;;;1.10;;
74421;SDS011;62856;51.446;8.360;2022-11-15T08:21:02;5.95;;;1.48;;
74421;SDS011;62856;51.446;8.360;2022-11-15T08:23:28;4.53;;;1.10;;
74421;SDS011;62856;51.446;8.360;2022-11-15T08:25:58;4.53;;;1.30;;
74421;SDS011;62856;51.446;8.360;2022-11-15T08:28:24;3.95;;;1.30;;
74421;SDS011;62856;51.446;8.360;2022-11-15T08:30:49;4.20;;;1.30;;
74421;SDS011;62856;51.446;8.360;2022-11-15T08:33:15;5.35;;;1.05;;
74421;SDS011;62856;51.446;8.360;2022-11-15T08:35:41;1.10;;;0.70;;
74421;SDS011;62856;51.446;8.360;2022-11-15T08:38:07;2.95;;;1.00;;
74421;SDS011;62856;51.446;8.360;2022-11-15T08:40:32;2.70;;;0.90;;
74421;SDS011;62856;51.446;8.360;2022-11-15T08:42:58;2.15;;;0.90;;
74421;SDS011;62856;51.446;8.360;2022-11-15T08:45:24;2.75;;;1.02;;
74421;SDS011;62856;51.446;8.360;2022-11-15T08:47:49;3.43;;;0.90;;
74421;SDS011;62856;51.446;8.360;2022-11-15T08:50:15;4.67;;;1.43;;
74421;SDS011;62856;51.446;8.360;2022-11-15T08:52:40;3.65;;;1.15;;
74421;SDS011;62856;51.446;8.360;2022-11-15T08:55:06;2.90;;;0.80;;
74421;SDS011;62856;51.446;8.360;2022-11-15T08:57:31;3.33;;;0.93;;
74421;SDS011;62856;51.446;8.360;2022-11-15T08:59:57;2.95;;;0.88;;
74421;SDS011;62856;51.446;8.360;2022-11-15T09:02:22;3.08;;;0.88;;
74421;SDS011;62856;51.446;8.360;2022-11-15T09:04:48;3.00;;;0.90;;
74421;SDS011;62856;51.446;8.360;2022-11-15T09:07:13;4.40;;;1.10;;
74421;SDS011;62856;51.446;8.360;2022-11-15T09:09:39;2.58;;;0.98;;
74421;SDS011;62856;51.446;8.360;2022-11-15T09:12:05;3.97;;;1.05;;
74421;SDS011;62856;51.446;8.360;2022-11-15T09:14:31;4.97;;;1.20;;
74421;SDS011;62856;51.446;8.360;2022-11-15T09:16:57;3.05;;;1.08;;
74421;SDS011;62856;51.446;8.360;2022-11-15T09:19:23;3.08;;;0.93;;
74421;SDS011;62856;51.446;8.360;2022-11-15T09:21:48;5.30;;;1.10;;
74421;SDS011;62856;51.446;8.360;2022-11-15T09:24:13;3.67;;;1.00;;
74421;SDS011;62856;51.446;8.360;2022-11-15T09:26:39;3.90;;;1.20;;
74421;SDS011;62856;51.446;8.360;2022-11-15T09:29:05;3.85;;;1.30;;
74421;SDS011;62856;51.446;8.360;2022-11-15T09:31:30;3.33;;;1.00;;
74421;SDS011;62856;51.446;8.360;2022-11-15T09:33:56;3.05;;;0.95;;
74421;SDS011;62856;51.446;8.360;2022-11-15T09:36:21;3.10;;;1.00;;
74421;SDS011;62856;51.446;8.360;2022-11-15T09:38:46;3.13;;;1.00;;
74421;SDS011;62856;51.446;8.360;2022-11-15T09:49:02;3.33;;;0.88;;
74421;SDS011;62856;51.446;8.360;2022-11-15T09:51:30;3.10;;;1.05;;
74421;SDS011;62856;51.446;8.360;2022-11-15T09:56:34;3.80;;;1.23;;
74421;SDS011;62856;51.446;8.360;2022-11-15T10:04:25;4.20;;;1.13;;
74421;SDS011;62856;51.446;8.360;2022-11-15T10:07:01;6.47;;;1.40;;
74421;SDS011;62856;51.446;8.360;2022-11-15T10:09:36;2.75;;;1.27;;
74421;SDS011;62856;51.446;8.360;2022-11-15T10:12:09;4.78;;;1.25;;
74421;SDS011;62856;51.446;8.360;2022-11-15T10:14:35;4.00;;;1.30;;
74421;SDS011;62856;51.446;8.360;2022-11-15T10:22:38;4.18;;;1.25;;
74421;SDS011;62856;51.446;8.360;2022-11-15T10:27:41;3.50;;;0.95;;
74421;SDS011;62856;51.446;8.360;2022-11-15T10:30:12;3.65;;;1.27;;
74421;SDS011;62856;51.446;8.360;2022-11-15T10:32:40;5.18;;;1.35;;
74421;SDS011;62856;51.446;8.360;2022-11-15T10:38:27;2.90;;;0.98;;
74421;SDS011;62856;51.446;8.360;2022-11-15T10:40:45;2.92;;;1.10;;
74421;SDS011;62856;51.446;8.360;2022-11-15T10:45:41;2.95;;;1.08;;
74421;SDS011;62856;51.446;8.360;2022-11-15T10:50:45;3.53;;;1.00;;
74421;SDS011;62856;51.446;8.360;2022-11-15T10:53:16;2.60;;;0.90;;
74421;SDS011;62856;51.446;8.360;2022-11-15T10:55:51;2.53;;;1.00;;
74421;SDS011;62856;51.446;8.360;2022-11-15T10:58:22;3.95;;;1.10;;
74421;SDS011;62856;51.446;8.360;2022-11-15T11:01:13;4.13;;;1.10;;
74421;SDS011;62856;51.446;8.360;2022-11-15T11:03:44;2.90;;;0.90;;
74421;SDS011;62856;51.446;8.360;2022-11-15T11:06:22;1.95;;;0.85;;
74421;SDS011;62856;51.446;8.360;2022-11-15T11:09:02;2.60;;;0.93;;
74421;SDS011;62856;51.446;8.360;2022-11-15T11:11:46;3.55;;;1.20;;
74421;SDS011;62856;51.446;8.360;2022-11-15T11:14:15;4.05;;;1.10;;
74421;SDS011;62856;51.446;8.360;2022-11-15T11:17:06;3.72;;;1.20;;
74421;SDS011;62856;51.446;8.360;2022-11-15T11:20:00;4.15;;;1.17;;
74421;SDS011;62856;51.446;8.360;2022-11-15T11:25:05;3.05;;;1.00;;
74421;SDS011;62856;51.446;8.360;2022-11-15T11:35:58;3.83;;;1.05;;
74421;SDS011;62856;51.446;8.360;2022-11-15T11:49:41;2.40;;;0.85;;
74421;SDS011;62856;51.446;8.360;2022-11-15T11:52:13;2.78;;;0.82;;
74421;SDS011;62856;51.446;8.360;2022-11-15T11:55:00;2.97;;;0.95;;
74421;SDS011;62856;51.446;8.360;2022-11-15T12:00:31;3.08;;;0.95;;
74421;SDS011;62856;51.446;8.360;2022-11-15T12:05:34;3.75;;;0.80;;
74421;SDS011;62856;51.446;8.360;2022-11-15T12:08:09;3.40;;;0.82;;
74421;SDS011;62856;51.446;8.360;2022-11-15T12:10:50;3.33;;;0.90;;
74421;SDS011;62856;51.446;8.360;2022-11-15T12:13:24;2.10;;;0.75;;
74421;SDS011;62856;51.446;8.360;2022-11-15T12:15:59;3.10;;;0.90;;
74421;SDS011;62856;51.446;8.360;2022-11-15T12:18:32;3.40;;;0.90;;
74421;SDS011;62856;51.446;8.360;2022-11-15T12:20:59;4.30;;;1.00;;
74421;SDS011;62856;51.446;8.360;2022-11-15T12:23:30;3.65;;;0.90;;
74421;SDS011;62856;51.446;8.360;2022-11-15T12:26:08;1.98;;;0.60;;
74421;SDS011;62856;51.446;8.360;2022-11-15T12:28:46;2.10;;;0.70;;
74421;SDS011;62856;51.446;8.360;2022-11-15T12:34:14;3.83;;;0.82;;
74421;SDS011;62856;51.446;8.360;2022-11-15T12:36:54;2.60;;;0.70;;
74421;SDS011;62856;51.446;8.360;2022-11-15T12:39:20;2.60;;;0.93;;
74421;SDS011;62856;51.446;8.360;2022-11-15T13:02:33;3.20;;;0.80;;
74421;SDS011;62856;51.446;8.360;2022-11-15T13:12:58;4.03;;;1.00;;
74421;SDS011;62856;51.446;8.360;2022-11-15T13:18:28;3.53;;;0.85;;
74421;SDS011;62856;51.446;8.360;2022-11-15T13:20:57;4.90;;;0.80;;
74421;SDS011;62856;51.446;8.360;2022-11-15T13:23:27;2.70;;;0.80;;
74421;SDS011;62856;51.446;8.360;2022-11-15T13:25:55;1.73;;;0.70;;
74421;SDS011;62856;51.446;8.360;2022-11-15T13:28:47;3.80;;;1.15;;
74421;SDS011;62856;51.446;8.360;2022-11-15T13:31:19;2.38;;;0.82;;
74421;SDS011;62856;51.446;8.360;2022-11-15T13:36:16;2.17;;;0.75;;
74421;SDS011;62856;51.446;8.360;2022-11-15T13:38:45;2.03;;;0.70;;
74421;SDS011;62856;51.446;8.360;2022-11-15T13:41:23;2.90;;;1.00;;
74421;SDS011;62856;51.446;8.360;2022-11-15T13:43:51;3.55;;;0.98;;
74421;SDS011;62856;51.446;8.360;2022-11-15T13:48:52;4.57;;;1.10;;
74421;SDS011;62856;51.446;8.360;2022-11-15T13:51:30;4.53;;;0.90;;
74421;SDS011;62856;51.446;8.360;2022-11-15T13:56:36;2.97;;;0.82;;
74421;SDS011;62856;51.446;8.360;2022-11-15T13:59:10;3.58;;;1.00;;
74421;SDS011;62856;51.446;8.360;2022-11-15T14:01:41;2.05;;;0.80;;
74421;SDS011;62856;51.446;8.360;2022-11-15T14:04:09;1.88;;;0.63;;
74421;SDS011;62856;51.446;8.360;2022-11-15T14:06:43;2.47;;;0.80;;
74421;SDS011;62856;51.446;8.360;2022-11-15T14:11:35;3.05;;;0.70;;
74421;SDS011;62856;51.446;8.360;2022-11-15T14:16:37;4.13;;;0.88;;
74421;SDS011;62856;51.446;8.360;2022-11-15T14:19:05;2.13;;;0.80;;
74421;SDS011;62856;51.446;8.360;2022-11-15T14:21:31;2.30;;;0.70;;
74421;SDS011;62856;51.446;8.360;2022-11-15T14:24:13;2.13;;;0.70;;
74421;SDS011;62856;51.446;8.360;2022-11-15T14:26:43;2.65;;;0.82;;
74421;SDS011;62856;51.446;8.360;2022-11-15T14:29:21;3.72;;;0.90;;
74421;SDS011;62856;51.446;8.360;2022-11-15T14:32:13;2.83;;;0.95;;
74421;SDS011;62856;51.446;8.360;2022-11-15T14:34:40;3.80;;;1.10;;
74421;SDS011;62856;51.446;8.360;2022-11-15T14:37:10;2.75;;;0.90;;
74421;SDS011;62856;51.446;8.360;2022-11-15T14:39:59;2.75;;;0.68;;
74421;SDS011;62856;51.446;8.360;2022-11-15T14:42:26;4.47;;;1.10;;
74421;SDS011;62856;51.446;8.360;2022-11-15T14:44:52;5.45;;;1.25;;
74421;SDS011;62856;51.446;8.360;2022-11-15T14:47:17;2.05;;;0.52;;
74421;SDS011;62856;51.446;8.360;2022-11-15T14:49:43;2.15;;;0.70;;
74421;SDS011;62856;51.446;8.360;2022-11-15T14:52:30;2.90;;;1.00;;
74421;SDS011;62856;51.446;8.360;2022-11-15T14:54:59;2.85;;;0.93;;
74421;SDS011;62856;51.446;8.360;2022-11-15T14:59:52;2.50;;;0.75;;
74421;SDS011;62856;51.446;8.360;2022-11-15T15:02:21;5.45;;;0.80;;
74421;SDS011;62856;51.446;8.360;2022-11-15T15:04:49;2.47;;;0.90;;
74421;SDS011;62856;51.446;8.360;2022-11-15T15:07:15;2.15;;;0.70;;
74421;SDS011;62856;51.446;8.360;2022-11-15T15:09:40;2.50;;;0.80;;
74421;SDS011;62856;51.446;8.360;2022-11-15T15:12:16;3.00;;;0.82;;
74421;SDS011;62856;51.446;8.360;2022-11-15T15:14:43;3.05;;;0.80;;
74421;SDS011;62856;51.446;8.360;2022-11-15T15:17:09;2.70;;;0.90;;
74421;SDS011;62856;51.446;8.360;2022-11-15T15:19:35;2.47;;;0.90;;
74421;SDS011;62856;51.446;8.360;2022-11-15T15:22:00;3.10;;;0.80;;
74421;SDS011;62856;51.446;8.360;2022-11-15T15:24:25;4.13;;;1.00;;
74421;SDS011;62856;51.446;8.360;2022-11-15T15:26:51;1.90;;;0.60;;
74421;SDS011;62856;51.446;8.360;2022-11-15T15:29:16;1.90;;;0.80;;
74421;SDS011;62856;51.446;8.360;2022-11-15T15:31:41;3.70;;;0.93;;
74421;SDS011;62856;51.446;8.360;2022-11-15T15:34:07;3.70;;;1.00;;
74421;SDS011;62856;51.446;8.360;2022-11-15T15:36:32;3.87;;;1.03;;
74421;SDS011;62856;51.446;8.360;2022-11-15T15:38:57;4.43;;;1.13;;
74421;SDS011;62856;51.446;8.360;2022-11-15T15:41:22;4.43;;;1.25;;
74421;SDS011;62856;51.446;8.360;2022-11-15T15:43:48;5.15;;;1.20;;
74421;SDS011;62856;51.446;8.360;2022-11-15T15:46:14;7.03;;;1.40;;
74421;SDS011;62856;51.446;8.360;2022-11-15T15:48:40;4.10;;;1.50;;
74421;SDS011;62856;51.446;8.360;2022-11-15T15:51:06;4.28;;;1.63;;
74421;SDS011;62856;51.446;8.360;2022-11-15T15:53:32;4.63;;;1.48;;
74421;SDS011;62856;51.446;8.360;2022-11-15T15:55:57;5.70;;;1.70;;
74421;SDS011;62856;51.446;8.360;2022-11-15T15:58:22;6.60;;;1.90;;
74421;SDS011;62856;51.446;8.360;2022-11-15T16:00:48;6.50;;;1.60;;
74421;SDS011;62856;51.446;8.360;2022-11-15T16:03:13;5.23;;;1.50;;
74421;SDS011;62856;51.446;8.360;2022-11-15T16:05:38;4.68;;;1.60;;
74421;SDS011;62856;51.446;8.360;2022-11-15T16:08:03;4.67;;;1.30;;
74421;SDS011;62856;51.446;8.360;2022-11-15T16:10:32;4.35;;;1.15;;
74421;SDS011;62856;51.446;8.360;2022-11-15T16:12:59;4.72;;;1.30;;
74421;SDS011;62856;51.446;8.360;2022-11-15T16:15:25;5.45;;;1.35;;
74421;SDS011;62856;51.446;8.360;2022-11-15T16:17:57;5.55;;;1.33;;
74421;SDS011;62856;51.446;8.360;2022-11-15T16:23:05;6.18;;;1.48;;
74421;SDS011;62856;51.446;8.360;2022-11-15T16:25:34;3.67;;;1.33;;
74421;SDS011;62856;51.446;8.360;2022-11-15T16:28:02;3.42;;;1.15;;
74421;SDS011;62856;51.446;8.360;2022-11-15T16:30:27;5.43;;;1.75;;
74421;SDS011;62856;51.446;8.360;2022-11-15T16:32:53;4.30;;;1.27;;
74421;SDS011;62856;51.446;8.360;2022-11-15T16:35:18;4.97;;;1.70;;
74421;SDS011;62856;51.446;8.360;2022-11-15T16:37:44;4.47;;;1.35;;
74421;SDS011;62856;51.446;8.360;2022-11-15T16:40:21;3.97;;;1.40;;
74421;SDS011;62856;51.446;8.360;2022-11-15T16:42:50;5.03;;;1.30;;
74421;SDS011;62856;51.446;8.360;2022-11-15T16:45:15;4.67;;;1.50;;
74421;SDS011;62856;51.446;8.360;2022-11-15T16:47:41;5.15;;;1.60;;
74421;SDS011;62856;51.446;8.360;2022-11-15T16:50:09;6.00;;;1.55;;
74421;SDS011;62856;51.446;8.360;2022-11-15T16:52:49;4.55;;;1.40;;
74421;SDS011;62856;51.446;8.360;2022-11-15T16:55:16;4.10;;;1.20;;
74421;SDS011;62856;51.446;8.360;2022-11-15T16:57:41;5.28;;;1.60;;
74421;SDS011;62856;51.446;8.360;2022-11-15T17:00:08;4.90;;;1.67;;
74421;SDS011;62856;51.446;8.360;2022-11-15T17:02:36;5.40;;;1.50;;
74421;SDS011;62856;51.446;8.360;2022-11-15T17:05:01;4.17;;;1.30;;
74421;SDS011;62856;51.446;8.360;2022-11-15T17:07:26;4.97;;;1.50;;
74421;SDS011;62856;51.446;8.360;2022-11-15T17:09:52;5.05;;;1.60;;
74421;SDS011;62856;51.446;8.360;2022-11-15T17:12:17;4.73;;;1.43;;
74421;SDS011;62856;51.446;8.360;2022-11-15T17:14:42;4.75;;;1.40;;
74421;SDS011;62856;51.446;8.360;2022-11-15T17:17:09;3.95;;;1.30;;
74421;SDS011;62856;51.446;8.360;2022-11-15T17:19:35;4.97;;;1.40;;
74421;SDS011;62856;51.446;8.360;2022-11-15T17:22:01;6.22;;;1.50;;
74421;SDS011;62856;51.446;8.360;2022-11-15T17:24:26;3.90;;;1.30;;